Time;durP1;ratioP1;P1;durP2;ratioP2;P2;SDS_P1;SDS_P2;PMS_P1;PMS_P2;Temp;Humidity;BMP_temperature;BMP_pressure;BME280_temperature;BME280_humidity;BME280_pressure;Samples;Min_cycle;Max_cycle;Signal;HPM_P1;HPM_P2
2024/02/28 00:02:00;;;;;;;29.10;17.53;;;4.00;99.90;;;;;;5033119;28;20423;-66
2024/02/28 00:04:25;;;;;;;28.93;18.10;;;4.00;99.90;;;;;;5034555;28;20437;-65
2024/02/28 00:06:51;;;;;;;26.03;16.27;;;4.00;99.90;;;;;;5032160;28;20540;-65
2024/02/28 00:09:17;;;;;;;30.70;17.53;;;4.00;99.90;;;;;;5034000;28;20182;-65
2024/02/28 00:11:46;;;;;;;33.00;18.97;;;4.00;99.90;;;;;;5033353;28;20218;-67
2024/02/28 00:14:15;;;;;;;30.40;17.60;;;4.00;99.90;;;;;;5034760;28;20178;-66
2024/02/28 00:16:44;;;;;;;29.33;17.13;;;4.00;99.90;;;;;;5033265;28;20420;-68
2024/02/28 00:19:12;;;;;;;27.57;17.07;;;4.00;99.90;;;;;;5034487;28;20912;-67
2024/02/28 00:21:40;;;;;;;29.17;18.30;;;3.90;99.90;;;;;;5033487;28;20946;-65
2024/02/28 00:24:07;;;;;;;32.17;18.03;;;3.90;99.90;;;;;;5035006;28;20433;-65
2024/02/28 00:26:33;;;;;;;31.73;18.70;;;3.90;99.90;;;;;;5033425;28;20424;-66
2024/02/28 00:28:58;;;;;;;33.20;19.60;;;3.90;99.90;;;;;;5033826;28;20536;-65
2024/02/28 00:31:25;;;;;;;32.30;18.43;;;3.90;99.90;;;;;;5033301;28;20184;-65
2024/02/28 00:33:50;;;;;;;29.20;17.43;;;3.90;99.90;;;;;;5032591;28;20194;-65
2024/02/28 00:36:16;;;;;;;32.50;18.40;;;3.90;99.90;;;;;;5034456;28;20748;-67
2024/02/28 00:38:42;;;;;;;32.60;18.17;;;3.90;99.90;;;;;;5033688;28;20189;-67
2024/02/28 00:41:08;;;;;;;32.77;19.40;;;3.90;99.90;;;;;;5035197;28;20185;-64
2024/02/28 00:43:33;;;;;;;36.80;18.97;;;3.80;99.90;;;;;;5033379;28;21265;-66
2024/02/28 00:45:59;;;;;;;32.87;18.20;;;3.70;99.90;;;;;;5033885;28;20185;-66
2024/02/28 00:48:25;;;;;;;33.70;18.77;;;3.70;99.90;;;;;;5033139;28;20206;-65
2024/02/28 00:50:52;;;;;;;32.50;18.97;;;3.70;99.90;;;;;;5033115;28;20184;-66
2024/02/28 00:53:19;;;;;;;37.87;20.90;;;3.70;99.90;;;;;;5032932;28;20563;-67
2024/02/28 00:55:45;;;;;;;33.00;18.80;;;3.70;99.90;;;;;;5032880;28;20459;-67
2024/02/28 00:58:11;;;;;;;38.17;19.80;;;3.60;99.90;;;;;;5034420;28;20459;-67
2024/02/28 01:00:36;;;;;;;41.60;21.50;;;3.60;99.90;;;;;;5033454;28;20729;-67
2024/02/28 01:03:03;;;;;;;35.87;19.43;;;3.60;99.90;;;;;;5033847;28;20209;-67
2024/02/28 01:05:30;;;;;;;39.40;19.87;;;3.60;99.90;;;;;;5032926;28;20190;-66
2024/02/28 01:07:56;;;;;;;31.50;19.27;;;3.60;99.90;;;;;;5033377;28;20412;-67
2024/02/28 01:10:22;;;;;;;33.50;19.20;;;3.50;99.90;;;;;;5033604;28;20433;-65
2024/02/28 01:12:48;;;;;;;32.93;19.93;;;3.50;99.90;;;;;;5034186;28;20467;-66
2024/02/28 01:15:14;;;;;;;32.50;19.10;;;3.40;99.90;;;;;;5037636;28;20535;-65
2024/02/28 01:17:39;;;;;;;36.07;19.10;;;3.40;99.90;;;;;;5036385;28;20829;-64
2024/02/28 01:20:07;;;;;;;42.03;20.30;;;3.30;99.90;;;;;;5037996;28;20243;-66
2024/02/28 01:22:33;;;;;;;38.03;18.97;;;3.30;99.90;;;;;;5035575;28;20810;-67
2024/02/28 01:24:59;;;;;;;36.07;20.20;;;3.20;99.90;;;;;;5036668;28;20435;-67
2024/02/28 01:27:24;;;;;;;34.67;19.80;;;3.20;99.90;;;;;;5036421;28;20186;-65
2024/02/28 01:29:50;;;;;;;31.90;16.53;;;3.30;99.90;;;;;;5037023;28;20182;-66
2024/02/28 01:32:16;;;;;;;26.57;17.60;;;3.30;99.90;;;;;;5037076;28;20260;-66
2024/02/28 01:34:41;;;;;;;26.80;17.30;;;3.30;99.90;;;;;;5036962;28;20190;-66
2024/02/28 01:37:07;;;;;;;29.13;16.87;;;3.20;99.90;;;;;;5035298;28;20251;-66
2024/02/28 01:39:33;;;;;;;30.53;17.37;;;3.20;99.90;;;;;;5036795;28;20533;-66
2024/02/28 01:41:59;;;;;;;25.10;16.37;;;3.30;99.90;;;;;;5036968;28;20186;-65
2024/02/28 01:44:24;;;;;;;31.27;17.20;;;3.20;99.90;;;;;;5036999;28;20192;-67
2024/02/28 01:46:51;;;;;;;27.10;15.70;;;3.20;99.90;;;;;;5036492;28;20252;-67
2024/02/28 01:49:17;;;;;;;28.60;17.37;;;3.30;99.90;;;;;;5037209;28;20206;-68
2024/02/28 01:51:46;;;;;;;29.70;19.30;;;3.30;99.90;;;;;;5035012;28;20477;-67
2024/02/28 01:54:12;;;;;;;29.90;18.90;;;3.30;99.90;;;;;;5037365;28;20428;-65
2024/02/28 01:56:39;;;;;;;35.27;19.77;;;3.30;99.90;;;;;;5036220;28;20454;-66
2024/02/28 01:59:05;;;;;;;33.17;19.13;;;3.40;99.90;;;;;;5037035;28;20746;-67
2024/02/28 02:01:31;;;;;;;31.27;19.03;;;3.40;99.90;;;;;;5036192;28;20483;-66
2024/02/28 02:03:57;;;;;;;28.23;18.57;;;3.50;99.90;;;;;;5037833;28;20559;-66
2024/02/28 02:06:22;;;;;;;31.90;20.17;;;3.50;99.90;;;;;;5036181;28;20217;-67
2024/02/28 02:08:48;;;;;;;35.33;19.67;;;3.60;99.90;;;;;;5036627;28;20428;-67
2024/02/28 02:11:18;;;;;;;32.87;20.27;;;3.60;99.90;;;;;;5036951;28;20182;-66
2024/02/28 02:13:51;;;;;;;33.27;18.63;;;3.70;99.90;;;;;;5035148;28;20533;-66
2024/02/28 02:16:18;;;;;;;36.80;20.43;;;3.70;99.90;;;;;;5036264;28;20439;-67
2024/02/28 02:18:44;;;;;;;35.87;19.87;;;3.70;99.90;;;;;;5035441;28;20479;-66
2024/02/28 02:21:12;;;;;;;36.23;20.30;;;3.70;99.90;;;;;;5037202;28;20428;-67
2024/02/28 02:23:41;;;;;;;35.17;21.07;;;3.70;99.90;;;;;;5035579;28;20660;-66
2024/02/28 02:26:07;;;;;;;34.50;20.30;;;3.80;99.90;;;;;;5036273;28;20428;-66
2024/02/28 02:28:33;;;;;;;39.40;21.97;;;3.80;99.90;;;;;;5035322;28;20440;-66
2024/02/28 02:30:59;;;;;;;39.60;22.40;;;3.90;99.90;;;;;;5037383;28;20436;-65
2024/02/28 02:33:25;;;;;;;35.03;21.07;;;3.90;99.90;;;;;;5035467;28;20460;-66
2024/02/28 02:35:52;;;;;;;36.27;21.50;;;3.90;99.90;;;;;;5036199;28;20433;-65
2024/02/28 02:38:18;;;;;;;37.40;21.37;;;4.00;99.90;;;;;;5036538;28;20205;-64
2024/02/28 02:40:48;;;;;;;34.93;22.83;;;4.00;99.90;;;;;;5035302;28;20428;-64
2024/02/28 02:43:14;;;;;;;34.80;20.70;;;4.10;99.90;;;;;;5036732;28;20182;-65
2024/02/28 02:45:40;;;;;;;38.40;21.70;;;4.10;99.90;;;;;;5034933;28;21075;-68
2024/02/28 02:48:05;;;;;;;45.90;24.90;;;4.10;99.90;;;;;;5036676;28;20692;-66
2024/02/28 02:50:31;;;;;;;36.57;21.03;;;4.10;99.90;;;;;;5035571;28;20273;-67
2024/02/28 02:52:57;;;;;;;41.77;23.00;;;4.10;99.90;;;;;;5036843;28;20472;-69
2024/02/28 02:55:22;;;;;;;42.73;23.13;;;4.10;99.90;;;;;;5035573;28;20964;-67
2024/02/28 02:57:48;;;;;;;43.50;22.13;;;4.20;99.90;;;;;;5035923;28;20182;-67
2024/02/28 03:00:14;;;;;;;50.47;25.70;;;4.20;99.90;;;;;;5036132;28;20268;-66
2024/02/28 03:02:40;;;;;;;45.17;25.07;;;4.20;99.90;;;;;;5034415;28;20475;-66
2024/02/28 03:05:06;;;;;;;45.33;23.67;;;4.10;99.90;;;;;;5036520;28;21243;-64
2024/02/28 03:07:32;;;;;;;52.27;25.47;;;4.10;99.90;;;;;;5034772;28;20174;-64
2024/02/28 03:09:58;;;;;;;48.13;26.23;;;4.10;99.90;;;;;;5036713;28;20447;-64
2024/02/28 03:12:24;;;;;;;42.63;23.70;;;4.10;99.90;;;;;;5034556;28;20657;-65
2024/02/28 03:14:49;;;;;;;49.20;26.03;;;4.10;99.90;;;;;;5035887;28;20426;-63
2024/02/28 03:17:15;;;;;;;48.43;26.73;;;4.20;99.90;;;;;;5034108;28;20640;-69
2024/02/28 03:19:41;;;;;;;47.50;26.03;;;4.20;99.90;;;;;;5035365;28;20198;-65
2024/02/28 03:22:07;;;;;;;51.20;25.70;;;4.20;99.90;;;;;;5036112;28;20693;-64
2024/02/28 03:24:36;;;;;;;48.47;25.93;;;4.20;99.90;;;;;;5034634;28;20433;-64
2024/02/28 03:27:02;;;;;;;48.00;24.63;;;4.30;99.90;;;;;;5035840;28;20202;-65
2024/02/28 03:29:28;;;;;;;51.43;25.33;;;4.30;99.90;;;;;;5034985;28;20436;-67
2024/02/28 03:31:54;;;;;;;52.93;25.83;;;4.30;99.90;;;;;;5035538;28;20472;-65
2024/02/28 03:34:20;;;;;;;57.00;27.90;;;4.30;99.90;;;;;;5033946;28;21260;-66
2024/02/28 03:36:46;;;;;;;60.83;29.30;;;4.30;99.90;;;;;;5034425;28;20668;-66
2024/02/28 03:39:12;;;;;;;50.63;26.13;;;4.30;99.90;;;;;;5036262;28;20192;-65
2024/02/28 03:41:38;;;;;;;54.63;26.23;;;4.30;99.90;;;;;;5034319;28;20990;-66
2024/02/28 03:44:04;;;;;;;49.73;27.40;;;4.40;99.90;;;;;;5035793;28;20433;-67
2024/02/28 03:46:30;;;;;;;53.73;24.10;;;4.40;99.90;;;;;;5033900;28;20436;-66
2024/02/28 03:48:56;;;;;;;52.90;26.27;;;4.40;99.90;;;;;;5034638;28;20440;-67
2024/02/28 03:51:21;;;;;;;63.33;27.63;;;4.40;99.90;;;;;;5035162;28;20245;-66
2024/02/28 03:53:47;;;;;;;51.07;27.37;;;4.40;99.90;;;;;;5035114;28;21100;-67
2024/02/28 03:56:13;;;;;;;45.40;25.97;;;4.40;99.90;;;;;;5035477;28;20276;-65
2024/02/28 03:58:40;;;;;;;53.97;26.80;;;4.30;99.90;;;;;;5034422;28;20518;-67
2024/02/28 04:01:06;;;;;;;49.33;25.93;;;4.30;99.90;;;;;;5034990;28;21229;-65
2024/02/28 04:03:32;;;;;;;57.17;26.70;;;4.30;99.90;;;;;;5034898;28;20535;-65
2024/02/28 04:05:58;;;;;;;56.17;27.33;;;4.40;99.90;;;;;;5035944;28;20539;-67
2024/02/28 04:08:24;;;;;;;47.90;26.10;;;4.30;99.90;;;;;;5033969;28;20311;-65
2024/02/28 04:10:52;;;;;;;51.67;26.17;;;4.30;99.90;;;;;;5035596;28;20460;-66
2024/02/28 04:13:18;;;;;;;51.87;26.77;;;4.30;99.90;;;;;;5033843;28;20692;-67
2024/02/28 04:15:45;;;;;;;59.80;29.80;;;4.30;99.90;;;;;;5034721;28;20440;-65
2024/02/28 04:18:11;;;;;;;61.83;27.37;;;4.40;99.90;;;;;;5033903;28;20217;-66
2024/02/28 04:20:38;;;;;;;62.07;29.70;;;4.40;99.90;;;;;;5033330;28;20428;-66
2024/02/28 04:23:04;;;;;;;61.00;32.43;;;4.40;99.90;;;;;;5035167;28;20186;-65
2024/02/28 04:25:30;;;;;;;63.67;30.53;;;4.40;99.90;;;;;;5034377;28;20586;-64
2024/02/28 04:27:56;;;;;;;58.83;30.40;;;4.40;99.90;;;;;;5034795;28;21158;-65
2024/02/28 04:30:22;;;;;;;54.53;27.90;;;4.40;99.90;;;;;;5033761;28;20277;-66
2024/02/28 04:32:48;;;;;;;53.70;29.13;;;4.40;99.90;;;;;;5034325;28;20474;-66
2024/02/28 04:35:18;;;;;;;55.03;29.53;;;4.50;99.90;;;;;;5034134;28;20427;-66
2024/02/28 04:37:47;;;;;;;62.10;29.50;;;4.50;99.90;;;;;;5033764;28;20587;-66
2024/02/28 04:40:13;;;;;;;54.37;29.30;;;4.50;99.90;;;;;;5034543;28;20424;-67
2024/02/28 04:42:39;;;;;;;54.67;29.57;;;4.60;99.90;;;;;;5034305;28;20443;-67
2024/02/28 04:45:05;;;;;;;57.33;29.57;;;4.60;99.90;;;;;;5034526;28;20523;-67
2024/02/28 04:47:31;;;;;;;61.90;31.80;;;4.60;99.90;;;;;;5033802;28;20436;-67
2024/02/28 04:49:57;;;;;;;62.83;35.00;;;4.60;99.90;;;;;;5039526;28;20543;-65
2024/02/28 04:52:24;;;;;;;64.27;30.90;;;4.60;99.90;;;;;;5037751;28;20828;-66
2024/02/28 04:54:50;;;;;;;62.97;32.73;;;4.70;99.90;;;;;;5039047;28;20432;-66
2024/02/28 04:57:16;;;;;;;61.37;30.40;;;4.60;99.90;;;;;;5036911;28;20622;-67
2024/02/28 04:59:43;;;;;;;63.17;31.70;;;4.70;99.90;;;;;;5038584;28;20463;-67
2024/02/28 05:02:09;;;;;;;58.97;30.30;;;4.70;99.90;;;;;;5037900;28;20182;-67
2024/02/28 05:04:35;;;;;;;60.43;31.33;;;4.70;99.90;;;;;;5036786;28;20497;-66
2024/02/28 05:07:01;;;;;;;51.37;29.87;;;4.70;99.90;;;;;;5038037;28;20688;-64
2024/02/28 05:09:26;;;;;;;54.17;29.40;;;4.70;99.90;;;;;;5035606;28;20186;-67
2024/02/28 05:11:52;;;;;;;57.07;29.93;;;4.80;99.90;;;;;;5037998;28;20210;-65
2024/02/28 05:14:18;;;;;;;61.97;33.53;;;4.80;99.90;;;;;;5037199;28;20252;-66
2024/02/28 05:16:44;;;;;;;62.10;31.33;;;4.80;99.90;;;;;;5037152;28;20190;-66
2024/02/28 05:19:09;;;;;;;63.83;31.00;;;4.80;99.90;;;;;;5037710;28;20764;-65
2024/02/28 05:21:42;;;;;;;64.17;32.30;;;4.80;99.90;;;;;;5036710;28;20194;-64
2024/02/28 05:24:08;;;;;;;56.57;29.87;;;4.80;99.90;;;;;;5037821;28;20213;-67
2024/02/28 05:26:38;;;;;;;59.87;31.80;;;4.80;99.90;;;;;;5036398;28;20528;-67
2024/02/28 05:29:05;;;;;;;55.10;30.77;;;4.70;99.90;;;;;;5036534;28;20453;-65
2024/02/28 05:31:32;;;;;;;57.07;30.70;;;4.70;99.90;;;;;;5036127;28;20440;-66
2024/02/28 05:33:58;;;;;;;56.77;32.80;;;4.70;99.90;;;;;;5036576;28;20459;-66
2024/02/28 05:36:26;;;;;;;58.80;32.90;;;4.70;99.90;;;;;;5036580;28;20494;-66
2024/02/28 05:38:54;;;;;;;56.20;29.00;;;4.70;99.90;;;;;;5036045;28;20479;-66
2024/02/28 05:41:20;;;;;;;57.97;29.67;;;4.70;99.90;;;;;;5035870;28;20429;-65
2024/02/28 05:43:46;;;;;;;59.70;32.53;;;4.70;99.90;;;;;;5036870;28;20417;-66
2024/02/28 05:46:12;;;;;;;58.43;31.50;;;4.70;99.90;;;;;;5035357;28;20487;-66
2024/02/28 05:48:40;;;;;;;57.53;31.60;;;4.70;99.90;;;;;;5033831;28;20938;-66
2024/02/28 05:51:06;;;;;;;63.27;32.77;;;4.70;99.90;;;;;;5036868;28;20432;-67
2024/02/28 05:53:38;;;;;;;64.43;32.87;;;4.70;99.90;;;;;;5028701;28;20481;-64
2024/02/28 05:56:13;;;;;;;67.40;34.50;;;4.80;99.90;;;;;;5033534;28;20213;-66
2024/02/28 05:58:45;;;;;;;59.77;32.20;;;4.80;99.90;;;;;;5034362;28;20431;-65
2024/02/28 06:01:11;;;;;;;63.67;31.77;;;4.80;99.90;;;;;;5035998;28;20506;-67
2024/02/28 06:03:38;;;;;;;61.30;32.23;;;4.80;99.90;;;;;;5033995;28;20989;-65
2024/02/28 06:06:07;;;;;;;64.20;34.30;;;4.70;99.90;;;;;;5033727;28;20436;-66
2024/02/28 06:08:38;;;;;;;60.37;34.53;;;4.70;99.90;;;;;;5034447;28;20786;-65
2024/02/28 06:11:05;;;;;;;61.30;31.43;;;4.70;99.90;;;;;;5035722;28;21106;-64
2024/02/28 06:13:30;;;;;;;66.10;31.50;;;4.70;99.90;;;;;;5035317;28;21081;-66
2024/02/28 06:15:56;;;;;;;62.63;34.40;;;4.70;99.90;;;;;;5036488;28;20517;-67
2024/02/28 06:18:23;;;;;;;61.70;32.87;;;4.70;99.90;;;;;;5034726;28;20715;-66
2024/02/28 06:20:49;;;;;;;63.67;33.03;;;4.60;99.90;;;;;;5036018;28;20432;-66
2024/02/28 06:23:15;;;;;;;66.33;33.47;;;4.60;99.90;;;;;;5034942;28;20949;-65
2024/02/28 06:25:41;;;;;;;63.67;32.20;;;4.60;99.90;;;;;;5035952;28;20289;-65
2024/02/28 06:28:06;;;;;;;68.77;33.50;;;4.60;99.90;;;;;;5032358;28;20596;-66
2024/02/28 06:30:33;;;;;;;74.37;34.80;;;4.60;99.90;;;;;;5033061;28;20260;-65
2024/02/28 06:33:00;;;;;;;68.77;33.40;;;4.70;99.90;;;;;;5034791;28;20211;-65
2024/02/28 06:35:26;;;;;;;63.87;33.00;;;4.70;99.90;;;;;;5032718;28;20467;-65
2024/02/28 06:37:51;;;;;;;61.23;32.90;;;4.70;99.90;;;;;;5035949;28;20523;-66
2024/02/28 06:40:18;;;;;;;65.00;34.03;;;4.60;99.90;;;;;;5032913;28;20783;-66
2024/02/28 06:42:44;;;;;;;67.93;32.63;;;4.60;99.90;;;;;;5035736;28;20186;-66
2024/02/28 06:45:09;;;;;;;68.90;31.80;;;4.60;99.90;;;;;;5034666;28;20429;-66
2024/02/28 06:47:36;;;;;;;66.33;31.93;;;4.60;99.90;;;;;;5034221;28;20194;-65
2024/02/28 06:50:06;;;;;;;66.30;32.47;;;4.60;99.90;;;;;;5034081;28;20433;-66
2024/02/28 06:52:32;;;;;;;64.90;34.97;;;4.70;99.90;;;;;;5034382;28;20473;-66
2024/02/28 06:54:58;;;;;;;71.00;33.30;;;4.70;99.90;;;;;;5033249;28;20823;-66
2024/02/28 06:57:23;;;;;;;61.47;31.80;;;4.80;99.90;;;;;;5027663;28;20498;-66
2024/02/28 06:59:49;;;;;;;69.87;35.70;;;4.90;99.90;;;;;;5032778;28;20780;-66
2024/02/28 07:02:15;;;;;;;68.90;32.03;;;5.00;99.90;;;;;;5031576;28;20181;-66
2024/02/28 07:04:42;;;;;;;59.33;30.03;;;5.00;99.90;;;;;;5033288;28;20933;-66
2024/02/28 07:07:07;;;;;;;57.63;29.00;;;5.00;99.90;;;;;;5032877;28;21115;-64
2024/02/28 07:09:33;;;;;;;65.37;33.50;;;5.10;99.90;;;;;;5031467;28;20445;-65
2024/02/28 07:12:00;;;;;;;70.53;34.57;;;5.00;99.90;;;;;;5031220;28;20822;-68
2024/02/28 07:14:27;;;;;;;67.53;33.37;;;5.00;99.90;;;;;;5032663;28;20296;-68
2024/02/28 07:16:53;;;;;;;66.37;35.47;;;5.10;99.90;;;;;;5032511;28;20460;-66
2024/02/28 07:19:18;;;;;;;59.87;31.47;;;5.10;99.90;;;;;;5033869;28;20425;-68
2024/02/28 07:21:44;;;;;;;69.00;33.03;;;5.20;99.90;;;;;;5034518;28;20516;-65
2024/02/28 07:24:10;;;;;;;73.23;34.23;;;5.30;99.90;;;;;;5033554;28;20681;-70
2024/02/28 07:26:36;;;;;;;66.27;31.77;;;5.30;99.90;;;;;;5033816;28;20425;-69
2024/02/28 07:29:02;;;;;;;70.90;34.33;;;5.30;99.90;;;;;;5034452;28;21325;-67
2024/02/28 07:31:27;;;;;;;68.20;34.10;;;5.40;99.90;;;;;;5031905;28;20219;-66
2024/02/28 07:33:53;;;;;;;69.77;34.33;;;5.40;99.90;;;;;;5033941;28;20272;-68
2024/02/28 07:36:20;;;;;;;71.10;32.00;;;5.40;99.90;;;;;;5032716;28;20221;-68
2024/02/28 07:38:45;;;;;;;73.73;33.83;;;5.40;99.90;;;;;;5033279;28;20240;-69
2024/02/28 07:41:11;;;;;;;73.60;35.07;;;5.50;99.90;;;;;;5033761;28;20428;-67
2024/02/28 07:43:37;;;;;;;68.80;34.33;;;5.50;99.90;;;;;;5032919;28;20269;-65
2024/02/28 07:46:08;;;;;;;70.03;31.50;;;5.50;99.90;;;;;;5031173;28;20435;-65
2024/02/28 07:48:33;;;;;;;64.60;34.10;;;5.50;99.90;;;;;;5030742;28;20452;-64
2024/02/28 07:50:59;;;;;;;65.00;33.30;;;5.60;99.90;;;;;;5032216;28;20429;-65
2024/02/28 07:53:25;;;;;;;70.10;34.50;;;5.60;99.90;;;;;;5032078;28;20224;-66
2024/02/28 07:55:50;;;;;;;72.23;35.03;;;5.60;99.90;;;;;;5033364;28;20181;-65
2024/02/28 07:58:16;;;;;;;66.10;31.97;;;5.60;99.90;;;;;;5031419;28;20184;-66
2024/02/28 08:00:43;;;;;;;61.37;31.20;;;5.60;99.90;;;;;;5033899;28;20239;-67
2024/02/28 08:03:09;;;;;;;69.83;33.33;;;5.60;99.90;;;;;;5033055;28;20503;-67
2024/02/28 08:05:39;;;;;;;61.33;31.57;;;5.60;99.90;;;;;;5033641;28;20773;-65
2024/02/28 08:08:07;;;;;;;59.30;30.57;;;5.70;99.90;;;;;;5032088;28;20441;-65
2024/02/28 08:10:33;;;;;;;58.40;29.77;;;5.70;99.90;;;;;;5032980;28;21037;-65
2024/02/28 08:12:59;;;;;;;58.67;30.27;;;5.70;99.90;;;;;;4999555;28;20465;-68
2024/02/28 08:15:24;;;;;;;50.77;28.80;;;5.80;99.90;;;;;;5032181;28;20194;-66
2024/02/28 08:17:50;;;;;;;58.30;30.50;;;5.80;99.90;;;;;;5032876;28;20185;-66
2024/02/28 08:20:16;;;;;;;53.93;29.77;;;5.80;99.90;;;;;;5031980;28;20181;-66
2024/02/28 08:22:41;;;;;;;49.80;27.13;;;5.90;99.90;;;;;;5032424;28;20227;-69
2024/02/28 08:25:10;;;;;;;57.70;30.93;;;5.80;99.90;;;;;;5032608;28;20190;-68
2024/02/28 08:27:36;;;;;;;62.80;29.37;;;5.90;99.90;;;;;;5032416;28;20529;-68
2024/02/28 08:30:03;;;;;;;70.87;31.43;;;5.90;99.90;;;;;;5032975;28;20440;-70
2024/02/28 08:32:29;;;;;;;59.93;29.67;;;5.90;99.90;;;;;;5032280;28;20218;-69
2024/02/28 08:34:54;;;;;;;58.50;30.80;;;6.00;99.90;;;;;;5033411;28;20431;-68
2024/02/28 08:37:20;;;;;;;62.60;30.33;;;6.00;99.90;;;;;;5032564;28;20603;-66
2024/02/28 08:39:46;;;;;;;58.37;30.40;;;6.00;99.90;;;;;;5033587;28;20520;-64
2024/02/28 08:42:12;;;;;;;57.27;29.97;;;6.00;99.90;;;;;;5031022;28;20793;-68
2024/02/28 08:44:38;;;;;;;61.83;30.87;;;6.10;99.90;;;;;;5033670;28;20188;-67
2024/02/28 08:47:04;;;;;;;56.53;30.10;;;6.10;99.90;;;;;;5031445;28;20444;-68
2024/02/28 08:49:30;;;;;;;59.73;30.27;;;6.00;99.90;;;;;;5033228;28;20797;-69
2024/02/28 08:51:57;;;;;;;60.53;31.00;;;6.00;99.90;;;;;;5032713;28;21061;-65
2024/02/28 08:54:22;;;;;;;64.40;31.73;;;6.00;99.90;;;;;;5031165;28;20425;-68
2024/02/28 08:56:48;;;;;;;62.13;30.73;;;6.10;99.90;;;;;;5033124;28;20428;-71
2024/02/28 08:59:14;;;;;;;68.63;32.67;;;6.10;99.90;;;;;;5031920;28;20683;-66
2024/02/28 09:01:41;;;;;;;61.17;31.60;;;6.20;99.90;;;;;;5033308;28;20787;-68
2024/02/28 09:04:07;;;;;;;65.07;31.23;;;6.20;99.90;;;;;;5032828;28;20190;-65
2024/02/28 09:06:32;;;;;;;67.57;32.23;;;6.30;99.90;;;;;;5032942;28;20436;-66
2024/02/28 09:08:58;;;;;;;66.00;33.07;;;6.20;99.90;;;;;;5032429;28;20228;-65
2024/02/28 09:11:25;;;;;;;73.20;34.80;;;6.20;99.90;;;;;;5030667;28;20193;-68
2024/02/28 09:13:51;;;;;;;63.90;31.10;;;6.30;99.90;;;;;;5032316;28;20210;-65
2024/02/28 09:16:17;;;;;;;73.30;31.67;;;6.30;99.90;;;;;;5031371;28;20461;-69
2024/02/28 09:18:42;;;;;;;58.50;32.07;;;6.30;99.90;;;;;;5032067;28;20437;-70
2024/02/28 09:21:08;;;;;;;61.40;33.10;;;6.30;99.90;;;;;;5031664;28;20192;-66
2024/02/28 09:23:34;;;;;;;67.93;33.03;;;6.30;99.90;;;;;;5031638;28;20182;-66
2024/02/28 09:26:04;;;;;;;65.20;32.90;;;6.30;99.90;;;;;;5032843;28;20949;-69
2024/02/28 09:28:29;;;;;;;69.83;32.50;;;6.40;99.90;;;;;;5032329;28;20260;-66
2024/02/28 09:30:55;;;;;;;69.43;33.10;;;6.30;99.90;;;;;;5032227;28;20432;-65
2024/02/28 09:33:21;;;;;;;72.00;33.67;;;6.40;99.90;;;;;;5032831;28;20237;-68
2024/02/28 09:35:47;;;;;;;65.10;31.20;;;6.40;99.90;;;;;;5036424;28;20174;-69
2024/02/28 09:38:12;;;;;;;60.80;29.63;;;6.40;99.90;;;;;;5035434;28;20968;-64
2024/02/28 09:40:38;;;;;;;60.30;31.07;;;6.40;99.90;;;;;;5036231;28;20679;-68
2024/02/28 09:43:04;;;;;;;63.57;30.63;;;6.50;99.90;;;;;;5035670;28;20272;-67
2024/02/28 09:45:31;;;;;;;64.50;32.40;;;6.50;99.90;;;;;;5035583;28;20440;-64
2024/02/28 09:48:00;;;;;;;56.37;30.70;;;6.50;99.90;;;;;;5035991;28;20517;-67
2024/02/28 09:50:27;;;;;;;58.83;30.70;;;6.50;99.90;;;;;;5034301;28;20436;-67
2024/02/28 09:52:53;;;;;;;55.97;29.87;;;6.60;99.90;;;;;;5035826;28;20621;-67
2024/02/28 09:55:19;;;;;;;63.50;32.30;;;6.60;99.90;;;;;;5035727;28;20459;-67
2024/02/28 09:57:48;;;;;;;59.90;29.43;;;6.70;99.90;;;;;;5035579;28;20428;-70
2024/02/28 10:00:15;;;;;;;53.30;28.30;;;6.90;99.90;;;;;;5034756;28;20571;-65
2024/02/28 10:02:43;;;;;;;49.57;26.27;;;7.00;99.90;;;;;;5035332;28;20837;-64
2024/02/28 10:05:09;;;;;;;53.27;27.60;;;7.10;99.90;;;;;;5035696;28;20515;-66
2024/02/28 10:07:35;;;;;;;54.07;26.47;;;7.10;99.90;;;;;;5034917;28;20433;-66
2024/02/28 10:10:01;;;;;;;45.83;24.40;;;7.20;99.90;;;;;;5036025;28;20429;-70
2024/02/28 10:12:26;;;;;;;48.70;27.80;;;7.30;99.90;;;;;;5067756;28;21065;-66
2024/02/28 10:14:52;;;;;;;48.50;25.83;;;7.20;99.90;;;;;;5035595;28;20253;-69
2024/02/28 10:17:18;;;;;;;49.57;26.23;;;7.20;99.90;;;;;;5035479;28;20193;-71
2024/02/28 10:19:44;;;;;;;51.23;26.80;;;7.20;99.90;;;;;;5035716;28;20182;-67
2024/02/28 10:22:09;;;;;;;47.97;26.00;;;7.20;99.90;;;;;;5035410;28;20187;-67
2024/02/28 10:24:37;;;;;;;49.57;24.77;;;7.30;99.90;;;;;;5034730;28;20591;-68
2024/02/28 10:27:03;;;;;;;47.70;27.30;;;7.30;99.90;;;;;;5034416;28;20185;-68
2024/02/28 10:29:29;;;;;;;54.30;27.60;;;7.30;99.90;;;;;;5035855;28;20428;-68
2024/02/28 10:31:58;;;;;;;47.00;25.73;;;7.30;99.90;;;;;;5034386;28;20818;-67
2024/02/28 10:34:24;;;;;;;46.40;26.23;;;7.30;99.90;;;;;;5035038;28;20425;-69
2024/02/28 10:36:51;;;;;;;52.83;27.67;;;7.40;99.90;;;;;;5034419;28;20456;-67
2024/02/28 10:39:17;;;;;;;51.23;28.80;;;7.40;99.90;;;;;;5034938;28;20490;-66
2024/02/28 10:41:46;;;;;;;52.10;27.97;;;7.50;99.90;;;;;;5035023;28;20491;-65
2024/02/28 10:44:13;;;;;;;51.40;28.13;;;7.60;99.90;;;;;;5034350;28;20978;-66
2024/02/28 10:46:39;;;;;;;48.63;28.20;;;7.80;99.90;;;;;;5033952;28;20462;-66
2024/02/28 10:49:09;;;;;;;49.13;27.80;;;8.00;99.90;;;;;;5033601;28;20447;-64
2024/02/28 10:51:36;;;;;;;52.27;28.13;;;8.10;99.90;;;;;;5034039;28;20457;-65
2024/02/28 10:54:11;;;;;;;49.13;26.77;;;8.30;99.90;;;;;;5034734;28;20997;-67
2024/02/28 10:56:41;;;;;;;51.00;28.20;;;8.40;99.90;;;;;;5034159;28;20431;-69
2024/02/28 10:59:08;;;;;;;57.57;29.23;;;8.50;99.90;;;;;;5032826;28;20481;-67
2024/02/28 11:01:43;;;;;;;51.03;29.27;;;8.70;99.90;;;;;;5033258;28;20891;-66
2024/02/28 11:04:12;;;;;;;50.60;28.10;;;8.90;99.90;;;;;;5034566;28;20435;-67
2024/02/28 11:06:49;;;;;;;46.70;27.73;;;9.20;99.90;;;;;;5034295;28;20425;-68
2024/02/28 11:09:20;;;;;;;44.30;26.17;;;9.50;99.90;;;;;;5034002;28;20450;-71
2024/02/28 11:11:46;;;;;;;46.77;26.60;;;9.70;99.90;;;;;;5034476;28;20424;-66
2024/02/28 11:14:15;;;;;;;43.77;25.10;;;9.90;99.90;;;;;;5035265;28;20892;-67
2024/02/28 11:16:46;;;;;;;44.87;25.30;;;10.10;99.90;;;;;;5034468;28;21073;-69
2024/02/28 11:19:21;;;;;;;42.87;25.40;;;10.10;99.90;;;;;;5034422;28;21202;-65
2024/02/28 11:21:55;;;;;;;48.63;26.07;;;10.20;99.90;;;;;;5033678;28;21005;-67
2024/02/28 11:24:25;;;;;;;40.37;23.67;;;10.30;99.90;;;;;;5034072;28;20548;-65
2024/02/28 11:26:52;;;;;;;46.03;26.60;;;10.30;99.90;;;;;;5048446;28;20429;-68
2024/02/28 11:29:24;;;;;;;40.67;25.03;;;10.40;99.90;;;;;;5034478;28;20432;-65
2024/02/28 11:31:50;;;;;;;48.83;26.67;;;10.40;99.90;;;;;;5034058;28;20509;-69
2024/02/28 11:34:16;;;;;;;42.03;23.60;;;10.50;99.90;;;;;;5033591;28;20440;-65
2024/02/28 11:36:41;;;;;;;42.77;25.07;;;10.60;99.90;;;;;;5034308;28;20460;-67
2024/02/28 11:39:07;;;;;;;37.67;23.90;;;10.60;99.90;;;;;;5033660;28;20420;-68
2024/02/28 11:41:33;;;;;;;40.43;25.20;;;10.80;99.90;;;;;;5032470;28;20197;-69
2024/02/28 11:43:58;;;;;;;49.23;25.40;;;10.90;99.90;;;;;;5033679;28;20217;-64
2024/02/28 11:46:24;;;;;;;45.20;26.47;;;10.90;99.90;;;;;;5033790;28;20309;-68
2024/02/28 11:48:50;;;;;;;43.13;25.47;;;11.10;99.90;;;;;;5033430;28;20208;-67
2024/02/28 11:51:15;;;;;;;42.63;26.13;;;11.20;99.90;;;;;;5033167;28;20213;-70
2024/02/28 11:53:41;;;;;;;43.47;24.53;;;11.10;99.90;;;;;;5034345;28;20305;-64
2024/02/28 11:56:08;;;;;;;45.20;25.70;;;11.20;99.90;;;;;;5033487;28;20650;-65
2024/02/28 11:58:33;;;;;;;42.53;24.83;;;11.30;99.90;;;;;;5033828;28;20349;-68
2024/02/28 12:00:59;;;;;;;42.30;24.67;;;11.40;99.90;;;;;;5033539;28;20539;-69
2024/02/28 12:03:26;;;;;;;42.53;24.90;;;11.40;99.90;;;;;;5032216;28;20193;-66
2024/02/28 12:05:52;;;;;;;36.40;23.30;;;11.30;99.90;;;;;;5032728;28;20888;-66
2024/02/28 12:08:19;;;;;;;37.00;23.20;;;11.30;99.90;;;;;;5034027;28;20457;-64
2024/02/28 12:10:48;;;;;;;36.47;23.90;;;11.40;99.90;;;;;;5033131;28;20440;-66
2024/02/28 12:13:18;;;;;;;41.57;24.50;;;11.40;99.90;;;;;;5033660;28;20472;-68
2024/02/28 12:15:44;;;;;;;40.07;25.10;;;11.40;99.90;;;;;;5048508;28;20521;-65
2024/02/28 12:18:11;;;;;;;43.90;26.63;;;11.30;99.90;;;;;;5033717;28;20425;-69
2024/02/28 12:20:39;;;;;;;40.27;24.53;;;11.30;99.90;;;;;;5032562;28;20424;-67
2024/02/28 12:23:05;;;;;;;40.93;23.47;;;11.40;99.90;;;;;;5033106;28;20426;-69
2024/02/28 12:25:31;;;;;;;34.77;22.77;;;11.50;99.90;;;;;;5032775;28;20985;-66
2024/02/28 12:27:57;;;;;;;41.80;23.87;;;11.60;99.90;;;;;;5032738;28;20781;-65
2024/02/28 12:30:23;;;;;;;38.20;23.63;;;11.70;99.90;;;;;;5033742;28;20425;-67
2024/02/28 12:32:48;;;;;;;36.37;22.00;;;11.60;99.90;;;;;;5032934;28;20288;-66